Time;durP1;ratioP1;P1;durP2;ratioP2;P2;SDS_P1;SDS_P2;PMS_P1;PMS_P2;Temp;Humidity;BMP_temperature;BMP_pressure;BME280_temperature;BME280_humidity;BME280_pressure;Samples;Min_cycle;Max_cycle;Signal;HPM_P1;HPM_P2
2023/09/01 00:01:10;;;;;;;15.27;7.73;;;;;;;21.41;65.70;100145.34;125135;1099;102057;-79
2023/09/01 00:04:10;;;;;;;15.77;7.70;;;;;;;21.34;66.01;100144.56;125286;1099;104169;-79
2023/09/01 00:06:43;;;;;;;16.70;7.87;;;;;;;21.30;65.97;100142.83;125067;1099;104389;-79
2023/09/01 00:09:14;;;;;;;18.23;8.03;;;;;;;21.27;65.60;100140.20;124902;1102;101967;-79
2023/09/01 00:11:46;;;;;;;16.90;7.83;;;;;;;21.23;65.74;100133.16;126111;1098;101922;-81
2023/09/01 00:14:17;;;;;;;15.77;7.83;;;;;;;21.20;66.59;100134.08;125560;1099;104175;-80
2023/09/01 00:16:48;;;;;;;15.53;7.90;;;;;;;21.18;66.85;100138.56;125187;1099;102073;-80
2023/09/01 00:19:22;;;;;;;16.67;8.20;;;;;;;21.14;66.01;100148.38;125602;1099;101971;-80
2023/09/01 00:21:55;;;;;;;14.37;7.03;;;;;;;21.08;67.38;100145.78;124887;1099;101834;-81
2023/09/01 00:24:27;;;;;;;12.88;7.58;;;;;;;21.01;66.52;100152.99;125506;1099;102399;-81
2023/09/01 00:26:58;;;;;;;20.20;8.17;;;;;;;20.95;67.25;100153.07;127284;1098;101781;-81
2023/09/01 00:29:33;;;;;;;16.77;7.67;;;;;;;20.90;67.72;100143.38;125486;1099;104172;-81
2023/09/01 00:32:05;;;;;;;15.97;7.90;;;;;;;20.87;67.18;100148.75;125437;1098;101941;-80
2023/09/01 00:34:36;;;;;;;17.93;7.87;;;;;;;20.85;67.09;100161.20;125431;1099;104329;-80
2023/09/01 00:37:08;;;;;;;15.53;7.80;;;;;;;20.81;67.44;100163.91;125429;1099;104226;-80
2023/09/01 00:39:39;;;;;;;17.03;7.77;;;;;;;20.78;68.60;100169.27;125500;1098;102028;-81
2023/09/01 00:42:10;;;;;;;14.60;7.23;;;;;;;20.75;67.29;100171.97;125342;1099;104373;-80
2023/09/01 00:44:42;;;;;;;15.07;7.30;;;;;;;20.73;68.35;100163.12;125469;1099;104238;-81
2023/09/01 00:47:13;;;;;;;14.90;7.87;;;;;;;20.71;68.07;100161.36;125435;1099;104025;-79
2023/09/01 00:49:48;;;;;;;16.73;7.63;;;;;;;20.69;68.19;100157.84;125502;1099;104208;-78
2023/09/01 00:52:20;;;;;;;17.73;8.07;;;;;;;20.64;68.96;100158.76;125351;1099;102471;-79
2023/09/01 00:54:51;;;;;;;16.40;7.27;;;;;;;20.62;69.02;100159.66;125128;1099;104165;-78
2023/09/01 00:57:22;;;;;;;17.70;7.57;;;;;;;20.61;68.57;100163.22;125476;1099;102013;-81
2023/09/01 00:59:54;;;;;;;14.80;7.17;;;;;;;20.57;68.33;100165.05;125377;1099;104268;-81
2023/09/01 01:02:26;;;;;;;17.07;7.27;;;;;;;20.54;68.90;100162.41;125371;1099;102417;-80
2023/09/01 01:04:58;;;;;;;18.27;7.37;;;;;;;20.52;68.20;100163.31;125438;1099;101917;-79
2023/09/01 01:07:40;;;;;;;12.67;6.93;;;;;;;20.50;68.42;100163.33;125479;1099;104191;-81
2023/09/01 01:10:18;;;;;;;14.93;7.43;;;;;;;20.47;68.97;100166.03;125399;1099;102103;-80
2023/09/01 01:12:57;;;;;;;16.27;7.40;;;;;;;20.45;69.34;100170.50;125296;1099;102179;-78
2023/09/01 01:15:32;;;;;;;16.70;7.97;;;;;;;20.44;69.30;100172.30;125543;1099;104208;-79
2023/09/01 01:18:08;;;;;;;14.60;7.17;;;;;;;20.41;68.88;100177.66;125516;1099;104162;-80
2023/09/01 01:20:43;;;;;;;15.43;7.20;;;;;;;20.39;68.54;100168.77;125455;1099;104287;-79
2023/09/01 01:23:16;;;;;;;15.90;7.70;;;;;;;20.36;70.04;100173.25;124905;1099;104217;-80
2023/09/01 01:25:49;;;;;;;16.50;7.43;;;;;;;20.35;69.75;100171.48;126403;1098;102209;-79
2023/09/01 01:28:22;;;;;;;15.72;7.47;;;;;;;20.33;69.57;100167.95;125405;1099;104166;-80
2023/09/01 01:30:54;;;;;;;17.27;7.77;;;;;;;20.30;69.97;100166.19;125375;1099;104211;-79
2023/09/01 01:33:43;;;;;;;13.97;7.70;;;;;;;20.31;69.75;100175.09;125236;1099;101823;-79
2023/09/01 01:36:20;;;;;;;14.60;7.27;;;;;;;20.31;70.46;100183.08;126354;1098;101953;-78
2023/09/01 01:39:05;;;;;;;16.13;7.87;;;;;;;20.30;69.74;100182.17;125390;1099;101878;-79
2023/09/01 01:41:45;;;;;;;13.80;7.43;;;;;;;20.28;70.33;100187.52;125438;1099;101856;-79
2023/09/01 01:44:21;;;;;;;15.10;7.63;;;;;;;20.24;70.37;100183.14;125369;1099;101812;-79
2023/09/01 01:46:56;;;;;;;14.60;7.30;;;;;;;20.22;70.31;100178.71;125533;1098;104214;-80
2023/09/01 01:49:29;;;;;;;14.83;7.30;;;;;;;20.20;70.74;100180.52;125501;1098;104162;-80
2023/09/01 01:52:00;;;;;;;;;;;;;;;20.16;72.98;100187.62;125478;1099;104222;-80
2023/09/01 01:54:32;;;;;;;16.10;7.57;;;;;;;20.15;71.01;100191.20;125594;1099;101903;-83
2023/09/01 01:57:04;;;;;;;15.37;7.03;;;;;;;20.13;71.16;100192.98;125464;1099;102029;-80
2023/09/01 01:59:36;;;;;;;15.63;7.43;;;;;;;20.11;71.09;100192.98;125358;1099;102269;-79
2023/09/01 02:02:07;;;;;;;15.40;7.47;;;;;;;20.10;71.05;100208.98;125460;1099;104262;-79
2023/09/01 02:04:38;;;;;;;14.37;7.23;;;;;;;20.10;71.77;100215.22;125453;1099;102077;-79
2023/09/01 02:07:10;;;;;;;14.47;7.03;;;;;;;20.08;71.16;100213.45;125483;1099;104239;-79
2023/09/01 02:09:42;;;;;;;18.30;7.57;;;;;;;20.06;72.21;100217.92;125445;1099;104313;-80
2023/09/01 02:12:13;;;;;;;16.90;7.77;;;;;;;20.04;71.50;100212.59;125411;1099;104239;-79
2023/09/01 02:14:44;;;;;;;15.23;7.20;;;;;;;20.03;71.88;100212.61;125550;1099;102280;-80
2023/09/01 02:17:16;;;;;;;16.17;7.63;;;;;;;20.01;71.74;100212.63;126181;1099;104338;-80
2023/09/01 02:19:47;;;;;;;17.37;7.93;;;;;;;20.00;72.21;100224.16;127382;1098;104220;-80
2023/09/01 02:22:18;;;;;;;16.83;7.80;;;;;;;19.98;73.41;100217.09;125506;1099;101857;-81
2023/09/01 02:24:50;;;;;;;17.87;8.03;;;;;;;19.96;73.73;100227.77;125551;1099;105526;-81
2023/09/01 02:27:21;;;;;;;17.23;8.00;;;;;;;19.94;73.09;100226.87;125269;1099;102040;-78
2023/09/01 02:29:52;;;;;;;14.57;7.80;;;;;;;19.93;72.65;100227.78;125388;1098;104195;-79
2023/09/01 02:32:24;;;;;;;15.10;7.80;;;;;;;19.93;72.58;100227.78;125500;1099;104242;-78
2023/09/01 02:34:55;;;;;;;13.13;6.87;;;;;;;19.91;73.35;100229.55;125400;1099;104172;-78
2023/09/01 02:37:26;;;;;;;15.53;8.30;;;;;;;19.89;73.20;100226.02;125301;1099;102151;-78
2023/09/01 02:39:57;;;;;;;14.80;7.40;;;;;;;19.90;73.18;100225.14;125257;1099;101987;-77
2023/09/01 02:42:29;;;;;;;16.20;8.10;;;;;;;19.90;73.37;100222.48;124685;1099;104163;-77
2023/09/01 02:45:00;;;;;;;16.67;7.70;;;;;;;19.89;73.52;100231.34;125934;1098;104217;-77
2023/09/01 02:47:31;;;;;;;17.83;7.70;;;;;;;19.90;72.90;100227.80;125277;1099;102086;-77
2023/09/01 02:50:03;;;;;;;16.03;8.07;;;;;;;19.88;73.88;100222.48;126238;1098;101645;-76
2023/09/01 02:52:34;;;;;;;15.87;7.87;;;;;;;19.88;72.82;100221.58;125068;1099;102036;-76
2023/09/01 02:55:07;;;;;;;18.23;8.30;;;;;;;19.87;73.32;100238.47;125166;1099;104196;-77
2023/09/01 02:57:38;;;;;;;15.03;7.17;;;;;;;19.85;73.56;100234.91;124695;1099;104173;-76
2023/09/01 03:00:21;;;;;;;17.57;8.23;;;;;;;19.83;72.99;100234.05;124658;1099;104185;-77
2023/09/01 03:02:53;;;;;;;14.78;7.42;;;;;;;19.83;73.38;100244.70;124712;1099;101892;-77
2023/09/01 03:05:26;;;;;;;19.13;8.30;;;;;;;19.82;73.44;100241.17;124831;1099;104252;-79
2023/09/01 03:07:58;;;;;;;15.83;7.80;;;;;;;19.81;73.62;100249.16;125257;1099;104244;-77
2023/09/01 03:10:30;;;;;;;13.97;7.03;;;;;;;19.81;74.57;100249.16;125347;1099;104166;-77
2023/09/01 03:13:01;;;;;;;15.17;8.03;;;;;;;19.81;73.76;100251.83;125358;1099;102093;-77
2023/09/01 03:15:33;;;;;;;17.67;8.27;;;;;;;19.83;74.33;100253.56;125217;1099;102133;-78
2023/09/01 03:18:04;;;;;;;18.53;8.30;;;;;;;19.86;73.61;100248.22;126223;1098;104194;-79
2023/09/01 03:20:36;;;;;;;16.77;8.33;;;;;;;19.89;74.36;100249.98;124836;1099;102253;-79
2023/09/01 03:23:07;;;;;;;17.13;8.00;;;;;;;19.92;73.53;100248.17;125504;1099;101972;-80
2023/09/01 03:25:41;;;;;;;16.30;7.77;;;;;;;19.97;74.51;100241.95;124908;1099;104195;-79
2023/09/01 03:28:11;;;;;;;;;;;;;;;20.00;74.43;100249.92;125503;1099;104182;-79
2023/09/01 03:30:42;;;;;;;17.23;8.80;;;;;;;20.02;73.58;100256.11;125394;1099;104293;-78
2023/09/01 03:33:15;;;;;;;16.83;8.27;;;;;;;20.05;74.23;100254.30;125320;1099;104217;-79
2023/09/01 03:35:46;;;;;;;16.13;8.07;;;;;;;20.08;73.62;100259.60;125499;1097;104050;-78
2023/09/01 03:38:18;;;;;;;17.03;8.50;;;;;;;20.12;73.77;100255.16;125395;1099;104198;-79
2023/09/01 03:40:49;;;;;;;16.57;7.90;;;;;;;20.15;74.13;100262.22;124828;1098;104159;-78
2023/09/01 03:43:20;;;;;;;21.40;8.13;;;;;;;20.15;73.29;100270.21;125315;1099;104265;-78
2023/09/01 03:45:52;;;;;;;14.83;7.33;;;;;;;20.17;73.69;100277.31;124693;1099;101924;-78
2023/09/01 03:48:23;;;;;;;18.70;8.40;;;;;;;20.17;74.21;100276.44;125276;1099;101810;-79
2023/09/01 03:51:09;;;;;;;15.77;7.80;;;;;;;20.19;73.21;100271.97;125234;1099;104152;-78
2023/09/01 03:53:41;;;;;;;18.07;7.83;;;;;;;20.21;73.07;100264.84;125319;1099;102387;-78
2023/09/01 03:56:15;;;;;;;18.83;8.40;;;;;;;20.23;73.30;100266.61;125355;1096;101960;-81
2023/09/01 03:58:46;;;;;;;16.93;8.30;;;;;;;20.28;74.09;100271.91;125751;1099;102097;-85
2023/09/01 04:01:18;;;;;;;16.17;8.27;;;;;;;20.27;74.47;100270.13;125713;1099;101836;-81
2023/09/01 04:03:50;;;;;;;20.17;8.23;;;;;;;20.28;74.20;100270.11;125559;1099;104252;-80
2023/09/01 04:06:22;;;;;;;17.50;7.97;;;;;;;20.31;74.12;100274.55;125598;1099;101888;-80
2023/09/01 04:08:53;;;;;;;17.93;8.13;;;;;;;20.32;73.54;100276.32;125536;1099;102000;-81
2023/09/01 04:11:24;;;;;;;17.30;7.80;;;;;;;20.34;73.35;100286.97;125483;1098;101999;-83
2023/09/01 04:13:56;;;;;;;15.33;8.07;;;;;;;20.35;73.65;100283.38;125526;1099;104233;-78
2023/09/01 04:16:27;;;;;;;19.47;8.43;;;;;;;20.37;73.52;100286.95;125442;1099;104314;-80
2023/09/01 04:18:59;;;;;;;18.60;8.60;;;;;;;20.41;73.54;100284.24;125730;1099;101835;-78
2023/09/01 04:21:30;;;;;;;20.03;9.07;;;;;;;20.44;74.05;100281.55;124737;1099;104249;-77
2023/09/01 04:24:02;;;;;;;17.23;8.27;;;;;;;20.47;73.76;100283.29;124790;1099;104162;-75
2023/09/01 04:26:33;;;;;;;15.90;8.13;;;;;;;20.51;73.39;100284.17;124862;1099;104217;-78
2023/09/01 04:29:05;;;;;;;20.87;8.70;;;;;;;20.54;74.73;100281.48;125549;1099;104259;-77
2023/09/01 04:31:36;;;;;;;18.63;8.50;;;;;;;20.55;74.60;100276.10;125886;1099;104284;-77
2023/09/01 04:34:08;;;;;;;21.67;9.03;;;;;;;20.59;74.60;100284.98;125471;1099;104212;-77
2023/09/01 04:36:40;;;;;;;17.63;8.20;;;;;;;20.62;73.75;100290.28;125013;1099;102025;-76
2023/09/01 04:39:13;;;;;;;17.20;8.13;;;;;;;20.66;74.53;100297.36;124548;1099;104258;-79
2023/09/01 04:41:44;;;;;;;18.80;8.60;;;;;;;20.70;74.00;100295.58;124604;1099;104319;-76
2023/09/01 04:44:18;;;;;;;16.67;8.20;;;;;;;20.73;73.91;100301.75;125008;1099;104220;-78
2023/09/01 04:46:50;;;;;;;15.97;8.00;;;;;;;20.75;74.38;100296.41;124553;1100;104233;-75
2023/09/01 04:49:21;;;;;;;16.20;7.80;;;;;;;20.77;73.52;100305.27;124411;1099;104246;-76
2023/09/01 04:51:52;;;;;;;20.73;8.03;;;;;;;20.82;74.46;100300.80;124778;1099;104201;-79
2023/09/01 04:54:25;;;;;;;15.10;8.17;;;;;;;20.89;73.79;100304.28;125575;1099;102119;-77
2023/09/01 04:56:58;;;;;;;17.47;8.33;;;;;;;20.93;73.99;100308.70;125169;1099;102338;-77
2023/09/01 04:59:29;;;;;;;14.03;7.87;;;;;;;21.01;73.81;100313.03;124958;1099;104346;-81
2023/09/01 05:02:01;;;;;;;15.97;8.07;;;;;;;21.10;73.80;100309.39;124822;1100;104484;-82
2023/09/01 05:04:33;;;;;;;16.23;8.53;;;;;;;21.18;74.03;100309.31;125314;1102;101881;-83
2023/09/01 05:07:05;;;;;;;19.20;8.40;;;;;;;21.26;73.05;100322.58;127500;1098;101592;-81
2023/09/01 05:09:36;;;;;;;19.63;8.50;;;;;;;21.32;73.71;100319.84;125580;1099;102824;-81
2023/09/01 05:12:09;;;;;;;16.60;8.07;;;;;;;21.41;73.54;100321.50;126003;1099;102087;-85
2023/09/01 05:14:42;;;;;;;17.87;7.93;;;;;;;21.43;73.14;100325.92;124932;1099;101932;-80
2023/09/01 05:17:13;;;;;;;17.50;8.43;;;;;;;21.45;73.27;100317.90;125362;1099;104166;-79
2023/09/01 05:19:45;;;;;;;17.63;7.93;;;;;;;21.44;72.86;100322.37;125404;1099;104169;-80
2023/09/01 05:22:16;;;;;;;16.43;7.80;;;;;;;21.50;72.88;100324.09;125588;1098;102043;-80
2023/09/01 05:24:50;;;;;;;18.83;7.93;;;;;;;21.61;72.97;100334.64;124821;1099;104277;-82
2023/09/01 05:27:21;;;;;;;18.47;8.43;;;;;;;21.63;72.14;100335.49;125355;1099;104360;-82
2023/09/01 05:29:54;;;;;;;18.03;8.20;;;;;;;21.65;72.25;100339.05;125408;1102;102021;-80
2023/09/01 05:32:25;;;;;;;17.20;7.93;;;;;;;21.67;72.27;100347.91;126071;1098;101864;-79
2023/09/01 05:34:57;;;;;;;16.10;8.30;;;;;;;21.72;71.95;100346.97;125046;1099;102029;-81
2023/09/01 05:37:28;;;;;;;16.73;7.10;;;;;;;21.78;72.58;100347.78;125544;1099;102013;-84
2023/09/01 05:40:00;;;;;;;17.37;8.37;;;;;;;21.86;72.00;100341.45;126227;1099;101971;-80
2023/09/01 05:42:32;;;;;;;19.43;8.50;;;;;;;21.89;71.65;100346.75;125530;1099;101855;-83
2023/09/01 05:45:11;;;;;;;18.07;8.30;;;;;;;21.90;71.92;100343.16;126071;1098;104297;-82
2023/09/01 05:47:45;;;;;;;19.50;8.90;;;;;;;21.95;71.51;100342.22;125595;1099;102272;-82
2023/09/01 05:50:18;;;;;;;18.80;8.17;;;;;;;22.00;71.20;100348.38;125418;1099;104233;-80
2023/09/01 05:52:50;;;;;;;18.48;8.60;;;;;;;22.04;71.15;100348.31;125325;1099;104331;-78
2023/09/01 05:55:24;;;;;;;23.77;8.53;;;;;;;22.10;70.67;100344.68;126484;1098;104047;-83
2023/09/01 05:57:54;;;;;;;;;;;;;;;22.16;70.50;100344.59;125741;1099;101817;-79
2023/09/01 06:00:29;;;;;;;17.73;8.40;;;;;;;22.21;70.44;100344.53;126365;1098;104191;-78
2023/09/01 06:03:01;;;;;;;17.00;8.17;;;;;;;22.28;70.72;100350.66;126423;1098;101984;-76
2023/09/01 06:05:37;;;;;;;16.53;8.50;;;;;;;22.31;70.17;100364.88;125652;1098;104185;-80
2023/09/01 06:08:11;;;;;;;19.00;8.93;;;;;;;22.34;70.20;100355.95;125697;1098;102055;-78
2023/09/01 06:10:44;;;;;;;22.00;9.20;;;;;;;22.42;70.63;100362.95;125406;1099;110858;-81
2023/09/01 06:13:18;;;;;;;19.90;8.27;;;;;;;22.44;69.40;100366.48;125438;1099;102698;-80
2023/09/01 06:15:51;;;;;;;20.02;8.78;;;;;;;22.49;68.75;100370.88;125195;1099;103110;-80
2023/09/01 06:18:27;;;;;;;17.17;8.40;;;;;;;22.55;69.19;100373.45;126569;1098;101713;-80
2023/09/01 06:21:06;;;;;;;16.50;8.37;;;;;;;22.61;68.67;100365.34;125415;1099;104233;-80
2023/09/01 06:23:40;;;;;;;16.35;8.45;;;;;;;22.61;68.39;100354.64;126532;1098;101967;-83
2023/09/01 06:26:12;;;;;;;;;;;;;;;22.71;67.83;100371.41;126619;1099;101772;-82
2023/09/01 06:28:46;;;;;;;17.97;8.10;;;;;;;22.77;68.16;100377.53;127574;1098;101978;-77
2023/09/01 06:31:17;;;;;;;16.20;7.87;;;;;;;22.85;67.99;100387.23;126518;1098;107006;-80
2023/09/01 06:33:49;;;;;;;19.90;8.67;;;;;;;22.90;67.57;100386.23;125735;1099;102088;-81
2023/09/01 06:36:23;;;;;;;16.87;8.00;;;;;;;22.94;67.36;100376.37;125974;1099;102030;-84
2023/09/01 06:38:57;;;;;;;19.40;8.50;;;;;;;22.96;66.60;100367.39;127059;1098;101936;-82
2023/09/01 06:41:33;;;;;;;17.62;8.23;;;;;;;23.09;66.95;100370.80;126338;1098;117858;-81
2023/09/01 06:44:06;;;;;;;16.57;7.87;;;;;;;23.15;66.36;100376.04;127300;1098;101667;-83
2023/09/01 06:46:58;;;;;;;14.50;7.95;;;;;;;23.24;66.89;100376.77;126877;1098;101859;-81
2023/09/01 06:49:48;;;;;;;16.33;8.20;;;;;;;23.36;66.20;100379.22;126854;1099;101996;-81
2023/09/01 06:52:32;;;;;;;17.03;7.90;;;;;;;23.52;66.00;100385.16;126361;1098;101457;-80
2023/09/01 06:55:17;;;;;;;17.57;8.10;;;;;;;23.65;65.79;100397.41;127471;1098;102623;-79
2023/09/01 06:57:53;;;;;;;18.23;8.40;;;;;;;23.76;65.32;100391.80;126838;1098;101953;-84
2023/09/01 07:00:32;;;;;;;17.33;7.53;;;;;;;23.93;64.91;100396.84;126773;1099;104172;-78
2023/09/01 07:03:13;;;;;;;20.77;8.27;;;;;;;24.05;64.79;100396.58;126352;1099;102225;-82
2023/09/01 07:06:00;;;;;;;16.73;7.80;;;;;;;24.27;64.34;100406.84;126245;1099;104229;-83
2023/09/01 07:08:35;;;;;;;16.67;8.13;;;;;;;24.41;63.62;100409.20;126451;1098;101896;-78
2023/09/01 07:12:03;;;;;;;;;;;;;;;;;;;;;
2023/09/01 07:15:54;;;;;;;;;;;;;;;;;;;;;
2023/09/01 07:18:48;;;;;;;14.07;7.03;;;;;;;24.83;61.27;100422.55;125564;1102;104179;-85
2023/09/01 07:21:36;;;;;;;16.00;7.73;;;;;;;24.99;61.71;100412.30;126165;1102;102636;-84
2023/09/01 07:24:23;;;;;;;;;;;;;;;;;;;;;
2023/09/01 07:27:01;;;;;;;15.77;7.70;;;;;;;25.37;61.52;100407.78;126877;1099;104251;-79
2023/09/01 07:33:28;;;;;;;16.20;7.93;;;;;;;25.69;59.98;100416.74;126661;1098;102360;-80
2023/09/01 07:39:02;;;;;;;14.27;7.83;;;;;;;25.95;59.75;100415.12;127553;1098;104179;-80
2023/09/01 07:41:36;;;;;;;17.87;7.10;;;;;;;26.04;59.09;100417.58;126033;1099;105717;-81
2023/09/01 07:44:20;;;;;;;;;;;;;;;;;;;;;
2023/09/01 07:47:06;;;;;;;17.73;7.97;;;;;;;26.30;58.14;100427.55;125914;1099;101877;-77
2023/09/01 07:49:38;;;;;;;13.55;7.65;;;;;;;26.40;57.25;100430.83;126523;1098;104228;-84
2023/09/01 07:52:12;;;;;;;15.53;7.63;;;;;;;26.46;57.05;100429.73;126751;1098;101935;-79
2023/09/01 07:54:46;;;;;;;14.57;7.07;;;;;;;26.49;57.10;100427.86;126451;1098;104322;-76
2023/09/01 07:57:24;;;;;;;13.93;6.75;;;;;;;26.46;56.83;100422.57;126248;1098;102148;-81
2023/09/01 08:07:51;;;;;;;14.33;7.30;;;;;;;26.62;55.38;100430.16;126701;1101;101779;-81
2023/09/01 08:10:42;;;;;;;13.03;7.20;;;;;;;26.78;55.18;100422.49;126144;1102;104239;-84
2023/09/01 08:13:21;;;;;;;13.40;7.30;;;;;;;26.88;55.05;100423.94;125511;1102;102005;-81
2023/09/01 08:16:07;;;;;;;12.23;7.17;;;;;;;26.93;54.15;100421.09;126040;1102;102013;-86
2023/09/01 08:18:43;;;;;;;13.30;7.00;;;;;;;27.07;54.33;100424.22;125618;1101;107504;-80
2023/09/01 08:21:17;;;;;;;12.70;6.87;;;;;;;27.13;53.19;100428.50;125787;1102;102040;-78
2023/09/01 08:23:50;;;;;;;12.70;6.57;;;;;;;27.12;53.69;100432.14;126397;1101;104187;-79
2023/09/01 08:26:27;;;;;;;13.50;6.78;;;;;;;27.12;53.66;100435.70;126288;1101;102047;-79
2023/09/01 08:32:05;;;;;;;12.58;6.75;;;;;;;27.14;52.50;100430.27;127326;1101;101930;-80
2023/09/01 08:34:43;;;;;;;16.03;6.67;;;;;;;27.28;53.62;100429.80;125973;1102;104280;-83
2023/09/01 08:37:23;;;;;;;12.23;6.33;;;;;;;27.48;52.89;100418.35;125911;1102;102916;-82
2023/09/01 08:40:15;;;;;;;14.80;6.97;;;;;;;27.47;52.08;100417.45;125811;1102;101774;-89
2023/09/01 08:42:57;;;;;;;12.47;6.60;;;;;;;27.52;52.60;100414.59;126176;1102;101973;-82
2023/09/01 08:45:33;;;;;;;12.00;6.53;;;;;;;27.57;52.24;100415.33;125376;1102;101802;-89
2023/09/01 08:48:09;;;;;;;14.10;6.90;;;;;;;27.64;51.76;100424.93;125318;1102;104157;-84
2023/09/01 08:50:43;;;;;;;11.67;6.27;;;;;;;27.66;51.35;100419.48;126286;1101;102025;-81
2023/09/01 08:53:18;;;;;;;12.87;6.50;;;;;;;27.62;50.45;100416.90;126055;1101;101804;-84
2023/09/01 08:55:50;;;;;;;11.30;5.90;;;;;;;27.59;50.80;100422.40;124807;1102;104271;-81
2023/09/01 08:58:23;;;;;;;10.05;6.20;;;;;;;27.61;50.67;100420.55;124778;1102;102020;-79
2023/09/01 09:00:58;;;;;;;11.03;5.90;;;;;;;27.65;50.22;100417.74;124753;1102;104198;-80
2023/09/01 09:03:39;;;;;;;11.10;6.03;;;;;;;27.61;50.10;100417.86;126988;1101;101788;-84
2023/09/01 09:06:16;;;;;;;11.53;6.00;;;;;;;27.74;50.04;100410.19;125321;1102;104201;-83
2023/09/01 09:09:14;;;;;;;12.83;6.20;;;;;;;27.88;50.33;100414.20;125312;1102;103812;-88
2023/09/01 09:12:18;;;;;;;8.50;5.60;;;;;;;28.05;49.63;100417.16;126234;1102;102024;-83
2023/09/01 09:14:52;;;;;;;11.08;5.95;;;;;;;28.12;49.16;100421.36;126309;1101;101949;-80
2023/09/01 09:17:25;;;;;;;11.93;6.30;;;;;;;28.21;49.25;100420.14;124860;1102;101876;-85
2023/09/01 09:19:59;;;;;;;12.30;6.17;;;;;;;28.27;48.34;100419.03;124826;1102;104313;-85
2023/09/01 09:22:31;;;;;;;14.73;6.30;;;;;;;28.23;48.30;100420.95;124907;1101;104261;-80
2023/09/01 09:25:02;;;;;;;10.20;5.80;;;;;;;28.23;48.07;100417.39;125977;1101;102163;-80
2023/09/01 09:27:35;;;;;;;10.80;5.60;;;;;;;28.35;48.10;100416.91;124911;1102;104175;-82
2023/09/01 09:30:10;;;;;;;13.90;6.70;;;;;;;28.67;48.39;100418.34;124774;1102;102031;-82
2023/09/01 09:32:43;;;;;;;14.63;6.50;;;;;;;28.82;47.55;100421.34;124565;1102;104188;-77
2023/09/01 09:35:16;;;;;;;13.30;6.10;;;;;;;28.88;47.44;100426.50;124672;1102;102043;-77
2023/09/01 09:37:59;;;;;;;13.40;6.78;;;;;;;28.96;46.96;100420.78;124276;1102;104232;-77
2023/09/01 09:40:31;;;;;;;9.50;5.53;;;;;;;28.79;46.48;100425.05;124439;1102;104242;-78
2023/09/01 09:43:04;;;;;;;13.73;6.57;;;;;;;28.72;46.52;100431.66;125877;1101;104338;-81
2023/09/01 09:45:43;;;;;;;13.10;6.10;;;;;;;28.72;46.41;100428.96;127051;1100;101638;-81
2023/09/01 09:48:24;;;;;;;12.35;6.10;;;;;;;28.81;46.69;100433.08;125718;1102;102068;-84
2023/09/01 09:51:25;;;;;;;11.27;5.77;;;;;;;28.95;45.94;100424.41;126246;1102;102560;-86
2023/09/01 09:54:15;;;;;;;11.63;5.80;;;;;;;29.12;46.13;100429.10;126229;1102;101753;-83
2023/09/01 09:56:51;;;;;;;11.17;5.77;;;;;;;29.07;45.58;100439.23;126057;1102;104078;-85
2023/09/01 09:59:43;;;;;;;10.60;5.90;;;;;;;28.80;45.09;100439.45;125563;1102;104159;-80
2023/09/01 10:02:23;;;;;;;11.37;6.03;;;;;;;28.48;45.41;100438.88;126174;1101;102348;-80
2023/09/01 10:04:59;;;;;;;11.10;5.87;;;;;;;28.32;45.68;100438.61;125348;1102;101919;-81
2023/09/01 10:07:35;;;;;;;14.03;6.40;;;;;;;28.11;45.71;100432.21;125348;1102;104315;-84
2023/09/01 10:10:27;;;;;;;12.73;6.13;;;;;;;27.97;45.87;100448.91;126047;1100;104644;-80
2023/09/01 10:12:59;;;;;;;14.43;6.43;;;;;;;27.79;45.32;100440.55;125287;1102;104185;-81
2023/09/01 10:15:31;;;;;;;13.23;5.80;;;;;;;27.87;45.74;100437.56;125200;1101;102225;-82
2023/09/01 10:18:08;;;;;;;10.70;5.80;;;;;;;28.10;45.91;100431.34;125477;1102;104316;-85
2023/09/01 10:20:43;;;;;;;11.47;6.10;;;;;;;28.34;45.80;100423.23;126047;1102;101642;-81
2023/09/01 10:23:24;;;;;;;12.97;6.03;;;;;;;28.56;45.54;100428.64;124995;1102;104175;-89
2023/09/01 10:26:24;;;;;;;13.03;6.33;;;;;;;28.54;45.46;100417.04;126235;1100;102006;-86
2023/09/01 10:29:01;;;;;;;12.17;6.23;;;;;;;28.57;45.16;100429.55;124845;1102;104200;-81
2023/09/01 10:31:36;;;;;;;11.60;5.60;;;;;;;28.50;44.81;100426.19;125285;1102;104111;-84
2023/09/01 10:34:13;;;;;;;12.77;6.03;;;;;;;28.50;44.99;100428.89;125587;1101;102165;-85
2023/09/01 10:36:51;;;;;;;9.57;5.90;;;;;;;28.50;45.12;100427.09;125343;1102;102019;-80
2023/09/01 10:39:38;;;;;;;13.13;6.63;;;;;;;28.37;44.96;100425.81;126320;1100;101778;-86
2023/09/01 10:42:12;;;;;;;10.67;5.80;;;;;;;28.31;45.21;100426.95;125906;1102;118591;-85
2023/09/01 10:45:14;;;;;;;9.57;5.37;;;;;;;28.28;45.28;100431.56;126054;1101;101929;-84
2023/09/01 10:47:52;;;;;;;9.27;5.33;;;;;;;28.08;45.00;100430.53;126697;1100;101670;-86
2023/09/01 10:50:24;;;;;;;10.03;5.60;;;;;;;27.84;45.39;100437.68;125784;1102;101747;-80
2023/09/01 10:53:32;;;;;;;10.60;5.57;;;;;;;27.61;45.55;100438.52;126088;1101;101887;-85
2023/09/01 10:56:12;;;;;;;11.37;5.70;;;;;;;27.42;45.98;100447.25;124581;1102;104214;-80
2023/09/01 10:58:55;;;;;;;9.17;4.80;;;;;;;27.30;45.78;100453.06;125037;1102;102022;-84
2023/09/01 11:01:40;;;;;;;6.90;4.63;;;;;;;27.15;45.85;100457.15;125664;1101;101821;-88
2023/09/01 11:04:37;;;;;;;9.40;4.33;;;;;;;27.00;46.47;100460.34;125297;1101;102045;-79
2023/09/01 11:10:13;;;;;;;10.57;4.33;;;;;;;26.77;47.85;100488.02;125986;1102;104162;-77
2023/09/01 11:12:46;;;;;;;10.43;3.80;;;;;;;26.65;48.96;100482.09;126059;1101;101652;-77
2023/09/01 11:15:21;;;;;;;;;;;;;;;26.38;48.86;100491.84;125905;1102;102159;-82
2023/09/01 11:18:03;;;;;;;14.07;4.83;;;;;;;26.22;50.39;100490.55;127381;1100;101574;-78
2023/09/01 11:20:35;;;;;;;10.70;5.30;;;;;;;26.08;51.06;100493.64;126625;1092;102917;-79
2023/09/01 11:23:32;;;;;;;10.43;5.27;;;;;;;25.92;52.52;100491.35;126281;1102;117938;-82
2023/09/01 11:26:09;;;;;;;9.50;4.55;;;;;;;25.60;54.44;100495.81;126742;1101;101804;-83
2023/09/01 11:28:40;;;;;;;;;;;;;;;25.40;53.46;100490.97;126383;1101;101807;-79
2023/09/01 11:31:12;;;;;;;11.87;5.30;;;;;;;25.43;54.21;100504.31;125002;1102;104169;-81
2023/09/01 11:33:56;;;;;;;12.00;5.50;;;;;;;25.50;54.74;100505.03;125548;1105;104297;-79
2023/09/01 11:36:29;;;;;;;10.65;5.78;;;;;;;25.58;55.51;100507.52;126637;1102;104171;-79
2023/09/01 11:39:05;;;;;;;11.73;5.73;;;;;;;25.76;56.39;100498.09;124947;1102;104200;-83
2023/09/01 11:41:43;;;;;;;9.93;5.30;;;;;;;25.94;56.83;100492.18;125643;1101;101965;-77
2023/09/01 11:44:15;;;;;;;10.17;5.57;;;;;;;26.11;56.46;100496.24;125015;1101;104242;-75
2023/09/01 11:46:49;;;;;;;11.63;5.37;;;;;;;26.32;56.05;100494.75;124992;1102;104243;-83
2023/09/01 11:49:25;;;;;;;9.40;5.22;;;;;;;26.48;57.31;100481.70;125536;1102;104748;-81
2023/09/01 11:52:01;;;;;;;9.37;5.33;;;;;;;26.60;57.46;100484.03;126802;1101;101587;-82
2023/09/01 11:54:45;;;;;;;10.80;5.30;;;;;;;26.76;57.47;100478.20;125386;1101;101762;-81
2023/09/01 11:57:21;;;;;;;9.80;5.37;;;;;;;26.92;57.79;100471.37;126498;1102;104230;-81
2023/09/01 11:59:52;;;;;;;;;;;;;;;27.13;56.66;100469.80;125472;1102;101880;-81
2023/09/01 12:02:24;;;;;;;11.07;5.63;;;;;;;27.15;56.92;100457.15;124825;1102;104263;-82
2023/09/01 12:05:02;;;;;;;12.55;5.50;;;;;;;27.08;57.01;100464.56;125956;1101;104083;-80
2023/09/01 12:07:34;;;;;;;12.87;6.00;;;;;;;27.21;57.66;100464.16;126508;1101;101680;-83
2023/09/01 12:13:15;;;;;;;9.50;5.13;;;;;;;27.39;55.90;100459.95;125827;1102;104197;-90